Time;durP1;ratioP1;P1;durP2;ratioP2;P2;SDS_P1;SDS_P2;PMS_P1;PMS_P2;Temp;Humidity;BMP_temperature;BMP_pressure;BME280_temperature;BME280_humidity;BME280_pressure;Samples;Min_cycle;Max_cycle;Signal;HPM_P1;HPM_P2
2022/03/21 00:01:24;;;;;;;;;;;;;;;-144.19;100.00;78422.09;5028996;28;19959;-85
2022/03/21 00:03:50;;;;;;;;;;;;;;;-144.19;100.00;78437.84;5013777;28;19926;-84
2022/03/21 00:06:17;;;;;;;;;;;;;;;-144.19;100.00;78465.41;5013338;28;19925;-87
2022/03/21 00:08:43;;;;;;;;;;;;;;;-144.19;100.00;78489.03;5013032;28;20315;-84
2022/03/21 00:11:10;;;;;;;;;;;;;;;-144.19;100.00;78498.88;5012647;28;19949;-83
2022/03/21 00:13:38;;;;;;;;;;;;;;;-144.19;100.00;78516.59;5013288;28;20020;-87
2022/03/21 00:16:04;;;;;;;;;;;;;;;-144.19;100.00;78524.50;5014150;28;20410;-86
2022/03/21 00:18:31;;;;;;;;;;;;;;;-144.19;100.00;78492.97;5012789;28;20410;-85
2022/03/21 00:20:57;;;;;;;;;;;;;;;-144.19;100.00;78479.19;5027958;28;19925;-85
2022/03/21 00:23:25;;;;;;;;;;;;;;;-144.19;100.00;78491.00;5048479;28;20344;-84
2022/03/21 00:25:51;;;;;;;;;;;;;;;-144.19;100.00;78481.16;5048385;28;20012;-85
2022/03/21 00:28:17;;;;;;;;;;;;;;;-144.19;100.00;78473.28;5049353;28;19995;-86
2022/03/21 00:30:45;;;;;;;;;;;;;;;-144.19;100.00;78479.19;5033426;28;19932;-85
2022/03/21 00:33:12;;;;;;;;;;;;;;;-144.19;100.00;78500.84;5047551;28;19968;-88
2022/03/21 00:35:38;;;;;;;;;;;;;;;-144.19;100.00;78508.72;5026617;28;19929;-85
2022/03/21 00:38:05;;;;;;;;;;;;;;;-144.19;100.00;78502.81;5048885;28;19933;-87
2022/03/21 00:40:31;;;;;;;;;;;;;;;-144.19;100.00;78536.31;5047848;28;19988;-86
2022/03/21 00:42:58;;;;;;;;;;;;;;;-144.19;100.00;78540.25;5032504;28;20215;-84
2022/03/21 00:45:25;;;;;;;;;;;;;;;-144.19;100.00;78530.41;5033495;28;19925;-85
2022/03/21 00:47:52;;;;;;;;;;;;;;;-144.19;100.00;78520.56;5047498;28;19936;-84
2022/03/21 00:50:19;;;;;;;;;;;;;;;-144.19;100.00;78526.47;5013138;28;19925;-84
2022/03/21 00:52:47;;;;;;;;;;;;;;;-144.19;100.00;78512.66;5011100;28;20352;-85
2022/03/21 00:55:15;;;;;;;;;;;;;;;-144.19;100.00;78504.78;5012819;28;19929;-85
2022/03/21 00:57:45;;;;;;;;;;;;;;;-144.19;100.00;78504.78;5012946;28;19933;-84
2022/03/21 01:00:16;;;;;;;;;;;;;;;-144.19;100.00;78512.66;5012550;28;20310;-86
2022/03/21 01:02:43;;;;;;;;;;;;;;;-144.19;100.00;78508.72;5011623;28;19926;-85
2022/03/21 01:05:10;;;;;;;;;;;;;;;-144.19;100.00;78524.50;5032028;28;19932;-87
2022/03/21 01:07:37;;;;;;;;;;;;;;;-144.19;100.00;78524.50;5032245;28;19929;-86
2022/03/21 01:10:04;;;;;;;;;;;;;;;-144.19;100.00;78528.44;5047249;28;19926;-84
2022/03/21 01:12:31;;;;;;;;;;;;;;;-144.19;100.00;78528.44;5046582;28;20012;-85
2022/03/21 01:14:57;;;;;;;;;;;;;;;-144.19;100.00;78516.59;5047602;28;19925;-84
2022/03/21 01:17:24;;;;;;;;;;;;;;;-144.19;100.00;78504.78;5043910;28;20321;-85
2022/03/21 01:19:50;;;;;;;;;;;;;;;-144.19;100.00;78508.72;5018865;28;19929;-88
2022/03/21 01:22:17;;;;;;;;;;;;;;;-144.19;100.00;78508.72;5017723;28;19930;-85
2022/03/21 01:24:43;;;;;;;;;;;;;;;-144.19;100.00;78516.59;5020083;28;19925;-86
2022/03/21 01:27:09;;;;;;;;;;;;;;;-144.19;100.00;78506.75;5020785;28;19926;-86
2022/03/21 01:29:36;;;;;;;;;;;;;;;-144.19;100.00;78498.88;5018828;28;19937;-87
2022/03/21 01:32:02;;;;;;;;;;;;;;;-144.19;100.00;78500.84;5021566;28;20387;-86
2022/03/21 01:34:28;;;;;;;;;;;;;;;-144.19;100.00;78492.97;5028039;28;19948;-89
2022/03/21 01:36:55;;;;;;;;;;;;;;;-144.19;100.00;78504.78;5017783;28;19935;-86
2022/03/21 01:39:22;;;;;;;;;;;;;;;-144.19;100.00;78504.78;5018322;28;20001;-86
2022/03/21 01:41:48;;;;;;;;;;;;;;;-144.19;100.00;78506.75;5017848;28;19932;-85
2022/03/21 01:44:17;;;;;;;;;;;;;;;-144.19;100.00;78508.72;5017405;28;20028;-86
2022/03/21 01:46:44;;;;;;;;;;;;;;;-144.19;100.00;78508.72;5026595;28;20354;-86
2022/03/21 01:49:11;;;;;;;;;;;;;;;-144.19;100.00;78518.56;5031985;28;19936;-86
2022/03/21 01:51:38;;;;;;;;;;;;;;;-144.19;100.00;78524.50;5019178;28;19929;-87
2022/03/21 01:56:50;;;;;;;;;;;;;;;-144.19;100.00;78520.56;5018154;28;19932;-87
2022/03/21 01:59:17;;;;;;;;;;;;;;;-144.19;100.00;78514.63;5018521;28;20397;-84
2022/03/21 02:01:43;;;;;;;;;;;;;;;-144.19;100.00;78516.59;5016279;28;19932;-89
2022/03/21 02:04:10;;;;;;;;;;;;;;;-144.19;100.00;78524.50;5028908;28;19979;-87
2022/03/21 02:06:37;;;;;;;;;;;;;;;-144.19;100.00;78530.41;5037145;28;20008;-88
2022/03/21 02:09:04;;;;;;;;;;;;;;;-144.19;100.00;78540.25;5052870;28;20409;-85
2022/03/21 02:11:31;;;;;;;;;;;;;;;-144.19;100.00;78530.41;5037097;28;19925;-85
2022/03/21 02:13:58;;;;;;;;;;;;;;;-144.19;100.00;78536.31;5051710;28;19956;-88
2022/03/21 02:16:25;;;;;;;;;;;;;;;-144.19;100.00;78540.25;5052278;28;19925;-86
2022/03/21 02:18:52;;;;;;;;;;;;;;;-144.19;100.00;78544.19;5040740;28;20342;-86
2022/03/21 02:21:39;;;;;;;;;;;;;;;-144.19;100.00;78544.19;5016930;28;19941;-86
2022/03/21 02:24:09;;;;;;;;;;;;;;;-144.19;100.00;78526.47;5016310;28;20291;-84
2022/03/21 02:26:36;;;;;;;;;;;;;;;-144.19;100.00;78540.25;5020488;28;19936;-86
2022/03/21 02:29:04;;;;;;;;;;;;;;;-144.19;100.00;78563.88;5036798;28;19929;-88
2022/03/21 02:31:32;;;;;;;;;;;;;;;-144.19;100.00;78567.81;5036492;28;20310;-86
2022/03/21 02:33:59;;;;;;;;;;;;;;;-144.19;100.00;78565.84;5029999;28;19932;-85
2022/03/21 02:36:26;;;;;;;;;;;;;;;-144.19;100.00;78559.94;5016990;28;19987;-87
2022/03/21 02:38:52;;;;;;;;;;;;;;;-144.19;100.00;78557.97;5017748;28;20303;-85
2022/03/21 02:41:19;;;;;;;;;;;;;;;-144.19;100.00;78548.13;5014027;28;19931;-86
2022/03/21 02:43:49;;;;;;;;;;;;;;;-144.19;100.00;78550.09;5015644;28;19926;-85
2022/03/21 02:46:17;;;;;;;;;;;;;;;-144.19;100.00;78563.88;5015007;28;19925;-85
2022/03/21 02:48:47;;;;;;;;;;;;;;;-144.19;100.00;78554.03;5015966;28;19932;-85
2022/03/21 02:51:14;;;;;;;;;;;;;;;-144.19;100.00;78561.91;5014641;28;20398;-84
2022/03/21 02:53:41;;;;;;;;;;;;;;;-144.19;100.00;78567.81;5032423;28;19925;-86
2022/03/21 02:56:07;;;;;;;;;;;;;;;-144.19;100.00;78559.94;5050814;28;19929;-86
2022/03/21 02:58:33;;;;;;;;;;;;;;;-144.19;100.00;78554.03;5019703;28;19972;-84
2022/03/21 03:01:06;;;;;;;;;;;;;;;-144.19;100.00;78544.19;5030625;28;19979;-86
2022/03/21 03:03:32;;;;;;;;;;;;;;;-144.19;100.00;78546.16;5013428;28;19949;-85
2022/03/21 03:05:59;;;;;;;;;;;;;;;-144.19;100.00;78540.25;5030694;28;19953;-87
2022/03/21 03:08:25;;;;;;;;;;;;;;;-144.19;100.00;78540.25;5015573;28;19936;-88
2022/03/21 03:10:51;;;;;;;;;;;;;;;-144.19;100.00;78534.34;5014803;28;19932;-85
2022/03/21 03:13:18;;;;;;;;;;;;;;;-144.19;100.00;78540.25;5014370;28;19925;-87
2022/03/21 03:15:44;;;;;;;;;;;;;;;-144.19;100.00;78544.19;5015504;28;19926;-84
2022/03/21 03:18:10;;;;;;;;;;;;;;;-144.19;100.00;78550.09;5014251;28;19932;-83
2022/03/21 03:20:37;;;;;;;;;;;;;;;-144.19;100.00;78563.88;5016697;28;19925;-86
2022/03/21 03:23:05;;;;;;;;;;;;;;;-144.19;100.00;78583.56;5032113;28;19944;-86
2022/03/21 03:25:31;;;;;;;;;;;;;;;-144.19;100.00;78583.56;5049939;28;19932;-87
2022/03/21 03:27:57;;;;;;;;;;;;;;;-144.19;100.00;78587.50;5034528;28;20370;-84
2022/03/21 03:30:24;;;;;;;;;;;;;;;-144.19;100.00;78587.50;5049076;28;19925;-84
2022/03/21 03:32:51;;;;;;;;;;;;;;;-144.19;100.00;78579.63;5048459;28;20288;-85
2022/03/21 03:35:17;;;;;;;;;;;;;;;-144.19;100.00;78583.56;5032039;28;19926;-86
2022/03/21 03:37:44;;;;;;;;;;;;;;;-144.19;100.00;78591.44;5019551;28;20291;-85
2022/03/21 03:40:10;;;;;;;;;;;;;;;-144.19;100.00;78601.28;5049641;28;19935;-86
2022/03/21 03:42:36;;;;;;;;;;;;;;;-144.19;100.00;78603.25;5048310;28;20296;-86
2022/03/21 03:45:03;;;;;;;;;;;;;;;-144.19;100.00;78615.09;5034972;28;19932;-86
2022/03/21 03:47:29;;;;;;;;;;;;;;;-144.19;100.00;78615.09;5048613;28;19925;-85
2022/03/21 03:49:58;;;;;;;;;;;;;;;-144.19;100.00;78621.00;5036456;28;19925;-85
2022/03/21 03:52:24;;;;;;;;;;;;;;;-144.19;100.00;78642.66;5012536;28;19929;-86
2022/03/21 03:54:51;;;;;;;;;;;;;;;-144.19;100.00;78646.59;5014161;28;19976;-85
2022/03/21 03:57:17;;;;;;;;;;;;;;;-144.19;100.00;78638.72;5012638;28;19937;-85
2022/03/21 03:59:43;;;;;;;;;;;;;;;-144.19;100.00;78646.59;5013583;28;19932;-86
2022/03/21 04:02:10;;;;;;;;;;;;;;;-144.19;100.00;78642.66;5011075;28;19937;-85
2022/03/21 04:04:36;;;;;;;;;;;;;;;-144.19;100.00;78634.78;5026938;28;19964;-88
2022/03/21 04:07:03;;;;;;;;;;;;;;;-144.19;100.00;78630.84;5048297;28;20059;-87
2022/03/21 04:09:29;;;;;;;;;;;;;;;-144.19;100.00;78638.72;5033266;28;19925;-85
2022/03/21 04:11:55;;;;;;;;;;;;;;;-144.19;100.00;78652.50;5047434;28;20387;-86
2022/03/21 04:14:22;;;;;;;;;;;;;;;-144.19;100.00;78644.63;5032961;28;20378;-85
2022/03/21 04:16:48;;;;;;;;;;;;;;;-144.19;100.00;78656.44;5032956;28;19932;-86
2022/03/21 04:19:14;;;;;;;;;;;;;;;-144.19;100.00;78658.41;5012502;28;19925;-85
2022/03/21 04:21:41;;;;;;;;;;;;;;;-144.19;100.00;78668.25;5011663;28;19933;-85
2022/03/21 04:24:07;;;;;;;;;;;;;;;-144.19;100.00;78674.16;5012423;28;20380;-85
2022/03/21 04:26:33;;;;;;;;;;;;;;;-144.19;100.00;78682.03;5011606;28;19925;-86
2022/03/21 04:29:02;;;;;;;;;;;;;;;-144.19;100.00;78682.03;5011382;28;20407;-85
2022/03/21 04:31:29;;;;;;;;;;;;;;;-144.19;100.00;78689.91;5031608;28;20016;-86
2022/03/21 04:33:55;;;;;;;;;;;;;;;-144.19;100.00;78705.66;5025540;28;19926;-85
2022/03/21 04:36:22;;;;;;;;;;;;;;;-144.19;100.00;78737.19;5015185;28;19932;-86
2022/03/21 04:38:48;;;;;;;;;;;;;;;-144.19;100.00;78741.13;5014597;28;19925;-85
2022/03/21 04:41:15;;;;;;;;;;;;;;;-144.19;100.00;78745.06;5014041;28;19972;-87
2022/03/21 04:43:42;;;;;;;;;;;;;;;-144.19;100.00;78768.69;5013255;28;19932;-86
2022/03/21 04:48:38;;;;;;;;;;;;;;;-144.19;100.00;78794.31;5040195;28;19975;-83
2022/03/21 04:51:05;;;;;;;;;;;;;;;-144.19;100.00;78827.78;5037073;28;19932;-83
2022/03/21 04:53:32;;;;;;;;;;;;;;;-144.19;100.00;78835.66;5037515;28;19929;-83
2022/03/21 04:55:59;;;;;;;;;;;;;;;-144.19;100.00;78855.34;5038614;28;19925;-83
2022/03/21 04:58:28;;;;;;;;;;;;;;;-144.19;100.00;78871.13;5021636;28;19926;-83
2022/03/21 05:00:55;;;;;;;;;;;;;;;-144.19;100.00;78892.78;5025118;28;19926;-83
2022/03/21 05:03:22;;;;;;;;;;;;;;;-144.19;100.00;78894.75;5027097;28;19913;-83
2022/03/21 05:05:49;;;;;;;;;;;;;;;-144.19;100.00;78914.44;5027473;28;19992;-83
2022/03/21 05:08:16;;;;;;;;;;;;;;;-144.19;100.00;78922.31;5023013;28;19933;-83
2022/03/21 05:10:43;;;;;;;;;;;;;;;-144.19;100.00;78922.31;5030766;28;19994;-83
2022/03/21 05:13:10;;;;;;;;;;;;;;;-144.19;100.00;78914.44;5031271;28;19936;-83
2022/03/21 05:15:40;;;;;;;;;;;;;;;-144.19;100.00;78930.19;5024840;28;19984;-83
2022/03/21 05:18:07;;;;;;;;;;;;;;;-144.19;100.00;78924.28;5030387;28;19926;-83
2022/03/21 05:20:34;;;;;;;;;;;;;;;-144.19;100.00;78936.09;5029991;28;19961;-83
2022/03/21 05:31:20;;;;;;;;;;;;;;;-144.19;100.00;78945.94;5029755;28;20065;-83
2022/03/21 05:36:36;;;;;;;;;;;;;;;-144.19;100.00;78955.81;5028807;28;19980;-84
2022/03/21 05:39:03;;;;;;;;;;;;;;;-144.19;100.00;78973.53;5028390;28;19932;-83
2022/03/21 05:41:30;;;;;;;;;;;;;;;-144.19;100.00;78989.28;5028826;28;19956;-84
2022/03/21 05:43:57;;;;;;;;;;;;;;;-144.19;100.00;79008.97;5027918;28;19926;-84
2022/03/21 05:46:27;;;;;;;;;;;;;;;-144.19;100.00;79028.69;5028134;28;19955;-83
2022/03/21 05:49:02;;;;;;;;;;;;;;;-144.19;100.00;79028.69;5023711;28;19953;-84
2022/03/21 05:51:33;;;;;;;;;;;;;;;-144.19;100.00;79005.03;5030018;28;19925;-83
2022/03/21 05:54:02;;;;;;;;;;;;;;;-144.19;100.00;79012.91;5030485;28;19963;-84
2022/03/21 05:56:29;;;;;;;;;;;;;;;-144.19;100.00;79042.47;5030334;28;19925;-83
2022/03/21 05:58:58;;;;;;;;;;;;;;;-144.19;100.00;79056.25;5029311;28;19926;-83
2022/03/21 06:01:27;;;;;;;;;;;;;;;-144.19;100.00;79036.56;5030833;28;19953;-83
2022/03/21 06:03:57;;;;;;;;;;;;;;;-144.19;100.00;79014.88;5028196;28;19926;-83
2022/03/21 06:06:24;;;;;;;;;;;;;;;-144.19;100.00;79001.09;5031921;28;19925;-83
2022/03/21 06:08:51;;;;;;;;;;;;;;;-144.19;100.00;79016.84;5031574;28;19936;-83
2022/03/21 06:11:19;;;;;;;;;;;;;;;-144.19;100.00;79024.75;5032027;28;19937;-83
2022/03/21 06:13:47;;;;;;;;;;;;;;;-144.19;100.00;79016.84;5030405;28;20177;-83
2022/03/21 06:16:15;;;;;;;;;;;;;;;-144.19;100.00;79030.66;5029355;28;19984;-84
2022/03/21 06:18:51;;;;;;;;;;;;;;;-144.19;100.00;79032.63;5029537;28;19925;-83
2022/03/21 06:21:21;;;;;;;;;;;;;;;-144.19;100.00;79020.81;5028385;28;20387;-83
2022/03/21 06:23:48;;;;;;;;;;;;;;;-144.19;100.00;79014.88;5046548;28;20343;-83
2022/03/21 06:26:15;;;;;;;;;;;;;;;-144.19;100.00;78981.41;5028933;28;19925;-83
2022/03/21 06:28:41;;;;;;;;;;;;;;;-144.19;100.00;78967.63;5029303;28;19929;-83
2022/03/21 06:31:11;;;;;;;;;;;;;;;-144.19;100.00;78957.78;5027153;28;19926;-83
2022/03/21 06:33:38;;;;;;;;;;;;;;;-144.19;100.00;78967.63;5022687;28;19985;-83
2022/03/21 06:36:04;;;;;;;;;;;;;;;-144.19;100.00;78963.69;5023565;28;19937;-83
2022/03/21 06:38:31;;;;;;;;;;;;;;;-144.19;100.00;78967.63;5020960;28;19929;-83
2022/03/21 06:40:59;;;;;;;;;;;;;;;-144.19;100.00;78965.66;5011687;28;20295;-83
2022/03/21 06:43:27;;;;;;;;;;;;;;;-144.19;100.00;78977.47;5026589;28;19926;-83
2022/03/21 06:45:55;;;;;;;;;;;;;;;-144.19;100.00;78969.59;5024138;28;19968;-83
2022/03/21 06:48:23;;;;;;;;;;;;;;;-144.19;100.00;78951.88;5022272;28;19948;-83
2022/03/21 06:50:51;;;;;;;;;;;;;;;-144.19;100.00;78945.94;5043111;28;19926;-83
2022/03/21 06:53:19;;;;;;;;;;;;;;;-144.19;100.00;78944.00;5027042;28;19926;-83
2022/03/21 06:55:45;;;;;;;;;;;;;;;-144.19;100.00;78930.19;5020777;28;19929;-83
2022/03/21 06:58:13;;;;;;;;;;;;;;;-144.19;100.00;78918.38;5016539;28;19929;-83
2022/03/21 07:00:41;;;;;;;;;;;;;;;-144.19;100.00;78902.63;5018490;28;19925;-83
2022/03/21 07:03:10;;;;;;;;;;;;;;;-144.19;100.00;78886.88;5019771;28;19949;-85
2022/03/21 07:05:37;;;;;;;;;;;;;;;-144.19;100.00;78875.06;5019689;28;19909;-83
2022/03/21 07:08:04;;;;;;;;;;;;;;;-144.19;100.00;78863.22;5013368;28;19980;-83
2022/03/21 07:10:34;;;;;;;;;;;;;;;-144.19;100.00;78855.34;5021452;28;19937;-83
2022/03/21 07:13:02;;;;;;;;;;;;;;;-144.19;100.00;78835.66;5024622;28;19979;-83
2022/03/21 07:15:29;;;;;;;;;;;;;;;-144.19;100.00;78817.94;5024609;28;20499;-83
2022/03/21 07:17:58;;;;;;;;;;;;;;;-144.19;100.00;78804.16;5027238;28;19972;-83
2022/03/21 07:20:26;;;;;;;;;;;;;;;-144.19;100.00;78780.50;5027791;28;19948;-82
2022/03/21 07:22:56;;;;;;;;;;;;;;;-144.19;100.00;78764.75;5029629;28;19964;-82
2022/03/21 07:25:23;;;;;;;;;;;;;;;-144.19;100.00;78754.91;5029335;28;19925;-82
2022/03/21 07:27:51;;;;;;;;;;;;;;;-144.19;100.00;78743.09;5025499;28;19932;-83
2022/03/21 07:30:19;;;;;;;;;;;;;;;-144.19;100.00;78737.19;5025212;28;20054;-83
2022/03/21 07:32:49;;;;;;;;;;;;;;;-144.19;100.00;78729.31;5024925;28;19926;-82
2022/03/21 07:35:16;;;;;;;;;;;;;;;-144.19;100.00;78705.66;5025235;28;19925;-83
2022/03/21 07:37:44;;;;;;;;;;;;;;;-144.19;100.00;78685.97;5025728;28;19932;-82
2022/03/21 07:40:11;;;;;;;;;;;;;;;-144.19;100.00;78670.22;5025671;28;19931;-83
2022/03/21 07:42:38;;;;;;;;;;;;;;;-144.19;100.00;78654.47;5026805;28;19948;-83
2022/03/21 07:47:51;;;;;;;;;;;;;;;-144.19;100.00;78589.47;5027097;28;19948;-82
2022/03/21 07:50:19;;;;;;;;;;;;;;;-144.19;100.00;78563.88;5028594;28;20001;-83
2022/03/21 07:52:48;;;;;;;;;;;;;;;-144.19;100.00;78540.25;5028505;28;19981;-82
2022/03/21 07:55:15;;;;;;;;;;;;;;;-144.19;100.00;78516.59;5030245;28;19925;-82
2022/03/21 07:57:42;;;;;;;;;;;;;;;-144.19;100.00;78496.91;5029680;28;19921;-82
2022/03/21 08:00:09;;;;;;;;;;;;;;;-144.19;100.00;78477.22;5024874;28;19969;-82
2022/03/21 08:02:37;;;;;;;;;;;;;;;-144.19;100.00;78469.34;5024452;28;19925;-81
2022/03/21 08:05:04;;;;;;;;;;;;;;;-144.19;100.00;78453.59;5027475;28;19925;-82
2022/03/21 08:07:45;;;;;;;;;;;;;;;-144.19;100.00;78433.91;5021900;28;19984;-82
2022/03/21 08:10:12;;;;;;;;;;;;;;;-144.19;99.12;78426.03;5029095;28;20347;-82
2022/03/21 08:12:42;;;;;;;;;;;;;;;-144.19;97.86;78410.25;5026121;28;19948;-82
2022/03/21 08:15:11;;;;;;;;;;;;;;;-144.19;94.48;78386.63;5027108;28;19933;-82
2022/03/21 08:18:15;;;;;;;;;;;;;;;-144.19;93.59;78368.91;5026364;28;19925;-81
2022/03/21 08:20:55;;;;;;;;;;;;;;;-144.19;89.31;78359.06;5023262;28;19949;-82
2022/03/21 08:23:22;;;;;;;;;;;;;;;-144.19;87.60;78355.13;5026406;28;19965;-82
2022/03/21 08:25:49;;;;;;;;;;;;;;;-144.19;87.15;78335.44;5023998;28;19926;-81
2022/03/21 08:28:16;;;;;;;;;;;;;;;-144.19;85.09;78311.81;5024804;28;19925;-81
2022/03/21 08:30:43;;;;;;;;;;;;;;;-144.19;84.07;78311.81;5027858;28;19925;-82
2022/03/21 08:33:11;;;;;;;;;;;;;;;-144.19;82.73;78299.97;5024580;28;19932;-80
2022/03/21 08:35:39;;;;;;;;;;;;;;;-144.19;82.51;78294.06;5027034;28;19926;-81
2022/03/21 08:38:07;;;;;;;;;;;;;;;-144.19;82.18;78272.41;5025519;28;19940;-80
2022/03/21 08:40:35;;;;;;;;;;;;;;;-144.19;79.23;78264.53;5024388;28;20296;-81
2022/03/21 08:43:02;;;;;;;;;;;;;;;-144.19;79.06;78238.94;5022717;28;19934;-79
2022/03/21 08:45:40;;;;;;;;;;;;;;;-144.19;76.31;78225.16;5017866;28;20376;-81
2022/03/21 08:48:07;;;;;;;;;;;;;;;-144.19;74.73;78223.19;5007981;28;19926;-81
2022/03/21 08:50:37;;;;;;;;;;;;;;;-144.19;73.41;78193.66;5020059;28;19925;-81
2022/03/21 08:53:05;;;;;;;;;;;;;;;-144.19;72.92;78170.00;5024166;28;19926;-80
2022/03/21 08:55:32;;;;;;;;;;;;;;;-144.19;74.16;78164.09;5023896;28;19929;-81
2022/03/21 08:57:59;;;;;;;;;;;;;;;-144.19;74.81;78168.03;5022660;28;19926;-82
2022/03/21 09:00:25;;;;;;;;;;;;;;;-144.19;74.56;78134.56;5013125;28;19925;-81
2022/03/21 09:02:54;;;;;;;;;;;;;;;-144.19;72.33;78118.81;5006761;28;19926;-83
2022/03/21 09:05:27;;;;;;;;;;;;;;;-144.19;74.01;78110.94;5005404;28;19929;-82
2022/03/21 09:07:54;;;;;;;;;;;;;;;-144.19;72.37;78083.38;5004523;28;20384;-81
2022/03/21 09:10:21;;;;;;;;;;;;;;;-144.19;68.25;78020.34;5003691;28;19977;-82
2022/03/21 09:12:49;;;;;;;;;;;;;;;-144.19;65.21;78028.22;5003196;28;19926;-81
2022/03/21 09:15:16;;;;;;;;;;;;;;;-144.19;62.74;78000.66;5006653;28;19936;-81
2022/03/21 09:17:43;;;;;;;;;;;;;;;-144.19;61.68;77961.28;5006778;28;19953;-82
2022/03/21 09:20:11;;;;;;;;;;;;;;;-144.19;60.29;77945.53;5006702;28;19926;-83
2022/03/21 09:22:38;;;;;;;;;;;;;;;-144.19;58.04;77937.66;5007637;28;19933;-82
2022/03/21 09:25:05;;;;;;;;;;;;;;;-144.19;56.31;77941.59;5016131;28;19933;-83
2022/03/21 09:27:32;;;;;;;;;;;;;;;-144.19;54.56;77949.47;5014733;28;19936;-83
2022/03/21 09:29:59;;;;;;;;;;;;;;;-144.19;57.24;77927.81;5016346;28;19925;-81
2022/03/21 09:32:32;;;;;;;;;;;;;;;-144.19;57.21;77914.03;5018587;28;19933;-83
2022/03/21 09:34:59;;;;;;;;;;;;;;;-144.19;55.95;77894.34;5014126;28;19925;-83
2022/03/21 09:37:29;;;;;;;;;;;;;;;-144.19;54.69;77876.63;5016598;28;19926;-82
2022/03/21 09:39:59;;;;;;;;;;;;;;;-144.19;53.28;77853.00;5019500;28;19925;-83
2022/03/21 09:42:26;;;;;;;;;;;;;;;-144.19;59.74;77847.09;5022697;28;19926;-82
2022/03/21 09:44:54;;;;;;;;;;;;;;;-144.19;53.25;77831.31;5026538;28;19925;-82
2022/03/21 09:50:13;;;;;;;;;;;;;;;-144.19;52.78;77827.38;5020292;28;19949;-81
2022/03/21 09:52:42;;;;;;;;;;;;;;;-144.19;53.62;77819.50;5026616;28;20009;-82
2022/03/21 09:55:09;;;;;;;;;;;;;;;-144.19;54.61;77791.94;5027996;28;19972;-82
2022/03/21 09:57:36;;;;;;;;;;;;;;;-144.19;56.81;77764.38;5026103;28;19952;-81
2022/03/21 10:00:09;;;;;;;;;;;;;;;-144.19;52.11;77764.38;5017734;28;19930;-82
2022/03/21 10:02:36;;;;;;;;;;;;;;;-144.19;51.42;77740.75;5014896;28;19925;-81
2022/03/21 10:05:04;;;;;;;;;;;;;;;-144.19;55.96;77726.97;5025956;28;19925;-81
2022/03/21 10:07:31;;;;;;;;;;;;;;;-144.19;57.44;77673.81;5031298;28;19929;-82
2022/03/21 10:10:09;;;;;;;;;;;;;;;-144.19;53.85;77654.13;5031321;28;20396;-80
2022/03/21 10:12:37;;;;;;;;;;;;;;;-144.19;50.10;77642.31;5032850;28;19989;-81
2022/03/21 10:15:13;;;;;;;;;;;;;;;-144.19;51.50;77650.19;5032628;28;20431;-80
2022/03/21 10:17:40;;;;;;;;;;;;;;;-144.19;49.65;77632.47;5028733;28;19926;-82
2022/03/21 10:20:10;;;;;;;;;;;;;;;-144.19;49.48;77632.47;5027826;28;20434;-81
2022/03/21 10:22:43;;;;;;;;;;;;;;;-144.19;48.34;77620.66;5028071;28;19922;-82
2022/03/21 10:25:17;;;;;;;;;;;;;;;-144.19;49.27;77567.50;5027737;28;20356;-81
2022/03/21 10:27:45;;;;;;;;;;;;;;;-144.19;48.37;77541.88;5026902;28;19987;-82
2022/03/21 10:30:15;;;;;;;;;;;;;;;-144.19;47.06;77587.19;5026076;28;19931;-82
2022/03/21 10:32:46;;;;;;;;;;;;;;;-144.19;47.71;77571.44;5027436;28;19935;-82
2022/03/21 10:35:14;;;;;;;;;;;;;;;-144.19;46.07;77520.22;5031936;28;19935;-81
2022/03/21 10:37:49;;;;;;;;;;;;;;;-144.19;46.00;77445.41;5030051;28;19925;-82
2022/03/21 10:40:20;;;;;;;;;;;;;;;-144.19;47.36;77388.31;5031179;28;19968;-81
2022/03/21 10:42:55;;;;;;;;;;;;;;;-144.19;47.66;77343.03;5028606;28;19936;-81
2022/03/21 10:45:34;;;;;;;;;;;;;;;-144.19;46.66;77301.69;5030353;28;19926;-81
2022/03/21 10:48:03;;;;;;;;;;;;;;;-144.19;47.00;77177.66;5016870;23;19925;-84
2022/03/21 10:50:31;;;;;;;;;;;;;;;-144.19;47.40;77110.72;4992241;28;19925;-86
2022/03/21 10:53:16;;;;;;;;;;;;;;;-144.19;46.20;77120.56;4993484;28;19933;-84
2022/03/21 10:55:44;;;;;;;;;;;;;;;-144.19;47.80;77114.66;5009082;28;20404;-85
2022/03/21 10:58:11;;;;;;;;;;;;;;;-144.19;43.54;76984.72;4992890;28;19926;-85
2022/03/21 11:00:37;;;;;;;;;;;;;;;-144.19;41.90;77189.47;4993589;28;19969;-85
2022/03/21 11:03:13;;;;;;;;;;;;;;;-144.19;44.94;77059.53;5008401;28;20016;-84
2022/03/21 11:05:40;;;;;;;;;;;;;;;-144.19;42.13;77071.34;4992934;28;19930;-88
2022/03/21 11:08:08;;;;;;;;;;;;;;;-144.19;40.99;77024.09;4994005;28;19929;-86
2022/03/21 11:10:34;;;;;;;;;;;;;;;-144.19;43.60;77071.34;4994084;28;19926;-84
2022/03/21 11:13:02;;;;;;;;;;;;;;;-144.19;43.88;76933.56;5024893;28;20304;-86
2022/03/21 11:15:30;;;;;;;;;;;;;;;-144.19;40.80;76998.50;4992312;28;20024;-83
2022/03/21 11:17:57;;;;;;;;;;;;;;;-144.19;40.59;76876.47;4992021;28;19930;-86
2022/03/21 11:20:24;;;;;;;;;;;;;;;-144.19;39.25;76831.19;4993640;28;19926;-84
2022/03/21 11:22:52;;;;;;;;;;;;;;;-144.19;40.24;76890.25;4992182;28;20405;-85
2022/03/21 11:25:21;;;;;;;;;;;;;;;-144.19;40.69;76841.03;4993578;28;19926;-87
2022/03/21 11:27:47;;;;;;;;;;;;;;;-144.19;40.52;76882.38;4994153;28;19932;-85
2022/03/21 11:30:17;;;;;;;;;;;;;;;-144.19;41.41;76992.59;4992198;28;19932;-86
2022/03/21 11:32:59;;;;;;;;;;;;;;;-144.19;38.54;76970.97;5008677;28;20029;-84
2022/03/21 11:35:28;;;;;;;;;;;;;;;-144.19;44.39;76917.81;4993997;28;19933;-84
2022/03/21 11:37:58;;;;;;;;;;;;;;;-144.19;39.80;76841.03;4993824;28;19941;-84
2022/03/21 11:40:29;;;;;;;;;;;;;;;-144.19;39.41;76874.50;4993437;28;19930;-88
2022/03/21 11:43:18;;;;;;;;;;;;;;;-144.19;40.64;76939.47;4991298;28;19945;-85
2022/03/21 11:45:50;;;;;;;;;;;;;;;-144.19;40.35;76776.06;4992953;28;19930;-88
2022/03/21 11:48:16;;;;;;;;;;;;;;;-144.19;40.35;76776.06;4991998;28;19936;-82
2022/03/21 11:50:46;;;;;;;;;;;;;;;-144.19;38.19;76681.56;4991383;28;20009;-84
2022/03/21 11:53:14;;;;;;;;;;;;;;;-144.19;39.76;76746.53;5024298;28;20297;-84
2022/03/21 11:55:42;;;;;;;;;;;;;;;-144.19;37.70;76772.13;4991971;28;19926;-84
2022/03/21 11:58:40;;;;;;;;;;;;;;;-144.19;38.84;76740.63;4992126;28;19926;-82
2022/03/21 12:01:12;;;;;;;;;;;;;;;-144.19;39.87;76787.88;4992519;28;20042;-85
2022/03/21 12:03:41;;;;;;;;;;;;;;;-144.19;39.25;76673.72;4989476;28;19933;-84
2022/03/21 12:06:23;;;;;;;;;;;;;;;-144.19;39.10;76671.75;4992563;28;20548;-85
2022/03/21 12:08:58;;;;;;;;;;;;;;;-144.19;37.56;76545.75;4992514;28;19964;-84
2022/03/21 12:11:52;;;;;;;;;;;;;;;-144.19;37.67;76469.00;4992857;28;20292;-84
2022/03/21 12:14:26;;;;;;;;;;;;;;;-144.19;37.45;76567.41;4991342;28;19926;-85
2022/03/21 12:17:01;;;;;;;;;;;;;;;-144.19;38.26;76457.19;5024984;28;19926;-87
2022/03/21 12:19:54;;;;;;;;;;;;;;;-144.19;36.92;76604.81;4993141;28;20021;-86
2022/03/21 12:22:26;;;;;;;;;;;;;;;-144.19;37.18;76577.25;4992698;28;19930;-87
2022/03/21 12:24:53;;;;;;;;;;;;;;;-144.19;38.96;76701.25;4991598;28;19940;-85
2022/03/21 12:27:34;;;;;;;;;;;;;;;-144.19;38.59;76579.22;4993135;28;19933;-84
2022/03/21 12:30:19;;;;;;;;;;;;;;;-144.19;37.14;76642.22;4993293;28;20388;-85
2022/03/21 12:32:52;;;;;;;;;;;;;;;-144.19;37.29;76567.41;4994890;28;19926;-83
2022/03/21 12:35:31;;;;;;;;;;;;;;;-144.19;38.12;76780.00;5005994;28;19930;-84
2022/03/21 12:38:06;;;;;;;;;;;;;;;-144.19;38.81;76681.56;4983272;28;19926;-88
2022/03/21 12:40:33;;;;;;;;;;;;;;;-144.19;39.89;76882.38;4992162;28;19941;-84
2022/03/21 12:43:00;;;;;;;;;;;;;;;-144.19;41.61;76809.53;4990007;28;19926;-81
2022/03/21 12:45:29;;;;;;;;;;;;;;;-144.19;38.52;76858.75;4991865;28;19938;-85
2022/03/21 12:48:00;;;;;;;;;;;;;;;-144.19;41.00;76941.44;4991040;28;19933;-85
2022/03/21 12:50:27;;;;;;;;;;;;;;;-144.19;40.99;76886.31;4991564;28;20361;-84